sensor_id;sensor_type;location;lat;lon;timestamp;P1;durP1;ratioP1;P2;durP2;ratioP2
37459;SDS011;23318;50.966;5.284;2023-12-14T00:01:43;69.85;;;21.00;;
37459;SDS011;23318;50.966;5.284;2023-12-14T00:04:11;68.47;;;20.70;;
37459;SDS011;23318;50.966;5.284;2023-12-14T00:06:37;68.63;;;22.20;;
37459;SDS011;23318;50.966;5.284;2023-12-14T00:09:02;70.10;;;21.70;;
37459;SDS011;23318;50.966;5.284;2023-12-14T00:11:28;77.43;;;21.98;;
37459;SDS011;23318;50.966;5.284;2023-12-14T00:13:54;66.20;;;21.95;;
37459;SDS011;23318;50.966;5.284;2023-12-14T00:16:19;68.90;;;20.52;;
37459;SDS011;23318;50.966;5.284;2023-12-14T00:18:45;71.15;;;21.40;;
37459;SDS011;23318;50.966;5.284;2023-12-14T00:21:11;75.47;;;22.05;;
37459;SDS011;23318;50.966;5.284;2023-12-14T00:23:36;70.03;;;24.65;;
37459;SDS011;23318;50.966;5.284;2023-12-14T00:26:02;76.82;;;24.83;;
37459;SDS011;23318;50.966;5.284;2023-12-14T00:28:28;74.75;;;23.02;;
37459;SDS011;23318;50.966;5.284;2023-12-14T00:30:54;74.35;;;22.20;;
37459;SDS011;23318;50.966;5.284;2023-12-14T00:33:19;73.28;;;23.77;;
37459;SDS011;23318;50.966;5.284;2023-12-14T00:35:45;65.60;;;21.92;;
37459;SDS011;23318;50.966;5.284;2023-12-14T00:38:11;62.45;;;21.35;;
37459;SDS011;23318;50.966;5.284;2023-12-14T00:40:36;68.97;;;21.95;;
37459;SDS011;23318;50.966;5.284;2023-12-14T00:43:02;74.50;;;22.15;;
37459;SDS011;23318;50.966;5.284;2023-12-14T00:45:28;61.05;;;21.48;;
37459;SDS011;23318;50.966;5.284;2023-12-14T00:47:53;66.45;;;22.52;;
37459;SDS011;23318;50.966;5.284;2023-12-14T00:50:19;64.75;;;21.08;;
37459;SDS011;23318;50.966;5.284;2023-12-14T00:52:45;68.80;;;22.45;;
37459;SDS011;23318;50.966;5.284;2023-12-14T00:55:10;72.50;;;22.77;;
37459;SDS011;23318;50.966;5.284;2023-12-14T00:57:36;68.80;;;23.58;;
37459;SDS011;23318;50.966;5.284;2023-12-14T01:00:02;78.45;;;24.02;;
37459;SDS011;23318;50.966;5.284;2023-12-14T01:02:28;73.20;;;24.02;;
37459;SDS011;23318;50.966;5.284;2023-12-14T01:04:54;71.82;;;22.45;;
37459;SDS011;23318;50.966;5.284;2023-12-14T01:07:20;75.18;;;22.77;;
37459;SDS011;23318;50.966;5.284;2023-12-14T01:09:45;72.38;;;22.98;;
37459;SDS011;23318;50.966;5.284;2023-12-14T01:12:11;71.20;;;24.48;;
37459;SDS011;23318;50.966;5.284;2023-12-14T01:14:37;62.85;;;21.67;;
37459;SDS011;23318;50.966;5.284;2023-12-14T01:17:02;78.28;;;24.63;;
37459;SDS011;23318;50.966;5.284;2023-12-14T01:19:28;69.05;;;22.77;;
37459;SDS011;23318;50.966;5.284;2023-12-14T01:21:54;65.20;;;22.05;;
37459;SDS011;23318;50.966;5.284;2023-12-14T01:24:20;65.38;;;21.77;;
37459;SDS011;23318;50.966;5.284;2023-12-14T01:26:46;63.35;;;22.50;;
37459;SDS011;23318;50.966;5.284;2023-12-14T01:29:11;72.68;;;22.38;;
37459;SDS011;23318;50.966;5.284;2023-12-14T01:31:37;69.72;;;21.30;;
37459;SDS011;23318;50.966;5.284;2023-12-14T01:34:03;62.10;;;22.15;;
37459;SDS011;23318;50.966;5.284;2023-12-14T01:36:28;67.80;;;22.85;;
37459;SDS011;23318;50.966;5.284;2023-12-14T01:38:54;65.03;;;22.77;;
37459;SDS011;23318;50.966;5.284;2023-12-14T01:41:20;66.15;;;21.83;;
37459;SDS011;23318;50.966;5.284;2023-12-14T01:43:45;62.38;;;21.27;;
37459;SDS011;23318;50.966;5.284;2023-12-14T01:46:11;70.82;;;22.23;;
37459;SDS011;23318;50.966;5.284;2023-12-14T01:48:38;60.15;;;22.17;;
37459;SDS011;23318;50.966;5.284;2023-12-14T01:51:03;57.45;;;19.05;;
37459;SDS011;23318;50.966;5.284;2023-12-14T01:53:30;75.38;;;20.17;;
37459;SDS011;23318;50.966;5.284;2023-12-14T01:55:56;60.40;;;18.55;;
37459;SDS011;23318;50.966;5.284;2023-12-14T01:58:22;59.13;;;20.15;;
37459;SDS011;23318;50.966;5.284;2023-12-14T02:01:03;61.35;;;20.35;;
37459;SDS011;23318;50.966;5.284;2023-12-14T02:03:48;51.90;;;18.05;;
37459;SDS011;23318;50.966;5.284;2023-12-14T02:06:16;64.68;;;19.05;;
37459;SDS011;23318;50.966;5.284;2023-12-14T02:08:41;58.67;;;19.50;;
37459;SDS011;23318;50.966;5.284;2023-12-14T02:11:07;54.75;;;18.30;;
37459;SDS011;23318;50.966;5.284;2023-12-14T02:13:33;55.08;;;18.60;;
37459;SDS011;23318;50.966;5.284;2023-12-14T02:15:59;54.17;;;18.60;;
37459;SDS011;23318;50.966;5.284;2023-12-14T02:18:25;46.70;;;17.95;;
37459;SDS011;23318;50.966;5.284;2023-12-14T02:20:50;40.55;;;14.55;;
37459;SDS011;23318;50.966;5.284;2023-12-14T02:23:16;43.08;;;16.35;;
37459;SDS011;23318;50.966;5.284;2023-12-14T02:25:42;44.10;;;16.17;;
37459;SDS011;23318;50.966;5.284;2023-12-14T02:28:08;41.55;;;15.15;;
37459;SDS011;23318;50.966;5.284;2023-12-14T02:30:33;40.78;;;14.80;;
37459;SDS011;23318;50.966;5.284;2023-12-14T02:32:59;33.28;;;12.43;;
37459;SDS011;23318;50.966;5.284;2023-12-14T02:35:25;32.50;;;12.40;;
37459;SDS011;23318;50.966;5.284;2023-12-14T02:37:50;33.17;;;12.35;;
37459;SDS011;23318;50.966;5.284;2023-12-14T02:40:16;34.33;;;12.38;;
37459;SDS011;23318;50.966;5.284;2023-12-14T02:42:42;40.28;;;13.57;;
37459;SDS011;23318;50.966;5.284;2023-12-14T02:45:08;35.10;;;12.93;;
37459;SDS011;23318;50.966;5.284;2023-12-14T02:47:34;46.20;;;16.42;;
37459;SDS011;23318;50.966;5.284;2023-12-14T02:50:00;42.95;;;15.13;;
37459;SDS011;23318;50.966;5.284;2023-12-14T02:52:25;40.88;;;16.13;;
37459;SDS011;23318;50.966;5.284;2023-12-14T02:54:51;36.47;;;14.95;;
37459;SDS011;23318;50.966;5.284;2023-12-14T02:57:16;41.75;;;14.85;;
37459;SDS011;23318;50.966;5.284;2023-12-14T02:59:42;38.58;;;15.05;;
37459;SDS011;23318;50.966;5.284;2023-12-14T03:02:08;47.28;;;16.15;;
37459;SDS011;23318;50.966;5.284;2023-12-14T03:04:34;36.13;;;12.82;;
37459;SDS011;23318;50.966;5.284;2023-12-14T03:07:02;45.33;;;15.93;;
37459;SDS011;23318;50.966;5.284;2023-12-14T03:09:28;38.28;;;13.98;;
37459;SDS011;23318;50.966;5.284;2023-12-14T03:11:54;44.33;;;16.27;;
37459;SDS011;23318;50.966;5.284;2023-12-14T03:14:20;44.80;;;14.85;;
37459;SDS011;23318;50.966;5.284;2023-12-14T03:16:46;42.40;;;14.20;;
37459;SDS011;23318;50.966;5.284;2023-12-14T03:19:13;37.70;;;12.70;;
37459;SDS011;23318;50.966;5.284;2023-12-14T03:21:38;41.35;;;14.23;;
37459;SDS011;23318;50.966;5.284;2023-12-14T03:24:04;35.08;;;12.90;;
37459;SDS011;23318;50.966;5.284;2023-12-14T03:26:30;38.30;;;13.77;;
37459;SDS011;23318;50.966;5.284;2023-12-14T03:28:55;40.13;;;14.23;;
37459;SDS011;23318;50.966;5.284;2023-12-14T03:31:21;46.53;;;13.90;;
37459;SDS011;23318;50.966;5.284;2023-12-14T03:33:47;38.20;;;12.80;;
37459;SDS011;23318;50.966;5.284;2023-12-14T03:36:12;39.88;;;12.65;;
37459;SDS011;23318;50.966;5.284;2023-12-14T03:38:38;38.55;;;12.85;;
37459;SDS011;23318;50.966;5.284;2023-12-14T03:41:04;39.55;;;12.98;;
37459;SDS011;23318;50.966;5.284;2023-12-14T03:43:29;36.75;;;12.40;;
37459;SDS011;23318;50.966;5.284;2023-12-14T03:45:55;36.08;;;13.55;;
37459;SDS011;23318;50.966;5.284;2023-12-14T03:48:21;47.75;;;14.88;;
37459;SDS011;23318;50.966;5.284;2023-12-14T03:50:46;59.00;;;17.63;;
37459;SDS011;23318;50.966;5.284;2023-12-14T03:53:12;52.13;;;17.73;;
37459;SDS011;23318;50.966;5.284;2023-12-14T03:55:37;44.35;;;16.83;;
37459;SDS011;23318;50.966;5.284;2023-12-14T03:58:03;42.97;;;13.60;;
37459;SDS011;23318;50.966;5.284;2023-12-14T04:00:29;48.28;;;15.07;;
37459;SDS011;23318;50.966;5.284;2023-12-14T04:02:54;57.45;;;17.80;;
37459;SDS011;23318;50.966;5.284;2023-12-14T04:05:20;44.92;;;14.77;;
37459;SDS011;23318;50.966;5.284;2023-12-14T04:07:46;48.85;;;15.90;;
37459;SDS011;23318;50.966;5.284;2023-12-14T04:10:12;34.78;;;13.80;;
37459;SDS011;23318;50.966;5.284;2023-12-14T04:12:38;38.13;;;13.68;;
37459;SDS011;23318;50.966;5.284;2023-12-14T04:15:04;37.20;;;12.20;;
37459;SDS011;23318;50.966;5.284;2023-12-14T04:17:31;31.00;;;10.68;;
37459;SDS011;23318;50.966;5.284;2023-12-14T04:19:57;33.25;;;12.75;;
37459;SDS011;23318;50.966;5.284;2023-12-14T04:22:23;29.52;;;11.50;;
37459;SDS011;23318;50.966;5.284;2023-12-14T04:24:50;28.65;;;10.52;;
37459;SDS011;23318;50.966;5.284;2023-12-14T04:27:15;28.60;;;11.43;;
37459;SDS011;23318;50.966;5.284;2023-12-14T04:29:41;33.72;;;12.60;;
37459;SDS011;23318;50.966;5.284;2023-12-14T04:32:07;34.47;;;11.88;;
37459;SDS011;23318;50.966;5.284;2023-12-14T04:34:33;39.80;;;14.43;;
37459;SDS011;23318;50.966;5.284;2023-12-14T04:36:58;38.17;;;14.95;;
37459;SDS011;23318;50.966;5.284;2023-12-14T04:39:24;41.70;;;15.98;;
37459;SDS011;23318;50.966;5.284;2023-12-14T04:41:50;40.53;;;14.65;;
37459;SDS011;23318;50.966;5.284;2023-12-14T04:44:17;44.60;;;14.55;;
37459;SDS011;23318;50.966;5.284;2023-12-14T04:46:43;30.77;;;13.25;;
37459;SDS011;23318;50.966;5.284;2023-12-14T04:49:09;35.22;;;14.30;;
37459;SDS011;23318;50.966;5.284;2023-12-14T04:51:35;35.05;;;14.65;;
37459;SDS011;23318;50.966;5.284;2023-12-14T04:54:01;33.97;;;13.07;;
37459;SDS011;23318;50.966;5.284;2023-12-14T04:56:27;37.10;;;13.88;;
37459;SDS011;23318;50.966;5.284;2023-12-14T04:58:53;32.00;;;13.13;;
37459;SDS011;23318;50.966;5.284;2023-12-14T05:01:18;33.60;;;12.15;;
37459;SDS011;23318;50.966;5.284;2023-12-14T05:03:44;32.97;;;13.15;;
37459;SDS011;23318;50.966;5.284;2023-12-14T05:06:09;31.98;;;12.57;;
37459;SDS011;23318;50.966;5.284;2023-12-14T05:08:35;26.83;;;10.98;;
37459;SDS011;23318;50.966;5.284;2023-12-14T05:11:01;30.90;;;11.75;;
37459;SDS011;23318;50.966;5.284;2023-12-14T05:13:26;26.60;;;10.75;;
37459;SDS011;23318;50.966;5.284;2023-12-14T05:15:52;25.10;;;9.82;;
37459;SDS011;23318;50.966;5.284;2023-12-14T05:18:18;29.42;;;11.43;;
37459;SDS011;23318;50.966;5.284;2023-12-14T05:20:43;22.27;;;9.05;;
37459;SDS011;23318;50.966;5.284;2023-12-14T05:23:10;27.30;;;11.48;;
37459;SDS011;23318;50.966;5.284;2023-12-14T05:25:36;22.35;;;10.27;;
37459;SDS011;23318;50.966;5.284;2023-12-14T05:28:02;28.23;;;11.93;;
37459;SDS011;23318;50.966;5.284;2023-12-14T05:30:28;24.52;;;11.15;;
37459;SDS011;23318;50.966;5.284;2023-12-14T05:32:54;26.58;;;10.38;;
37459;SDS011;23318;50.966;5.284;2023-12-14T05:35:20;27.33;;;11.43;;
37459;SDS011;23318;50.966;5.284;2023-12-14T05:37:46;24.60;;;11.00;;
37459;SDS011;23318;50.966;5.284;2023-12-14T05:40:12;24.15;;;11.52;;
37459;SDS011;23318;50.966;5.284;2023-12-14T05:42:37;26.63;;;11.30;;
37459;SDS011;23318;50.966;5.284;2023-12-14T05:45:04;27.42;;;12.02;;
37459;SDS011;23318;50.966;5.284;2023-12-14T05:47:33;27.48;;;11.45;;
37459;SDS011;23318;50.966;5.284;2023-12-14T05:49:59;24.75;;;10.98;;
37459;SDS011;23318;50.966;5.284;2023-12-14T05:52:26;28.55;;;12.02;;
37459;SDS011;23318;50.966;5.284;2023-12-14T05:54:51;24.40;;;11.50;;
37459;SDS011;23318;50.966;5.284;2023-12-14T05:57:17;27.50;;;12.38;;
37459;SDS011;23318;50.966;5.284;2023-12-14T05:59:43;25.73;;;11.25;;
37459;SDS011;23318;50.966;5.284;2023-12-14T06:02:08;26.08;;;11.73;;
37459;SDS011;23318;50.966;5.284;2023-12-14T06:04:34;32.28;;;13.48;;
37459;SDS011;23318;50.966;5.284;2023-12-14T06:07:00;23.35;;;12.00;;
37459;SDS011;23318;50.966;5.284;2023-12-14T06:09:25;28.05;;;11.85;;
37459;SDS011;23318;50.966;5.284;2023-12-14T06:11:58;20.85;;;10.13;;
37459;SDS011;23318;50.966;5.284;2023-12-14T06:14:25;23.55;;;12.00;;
37459;SDS011;23318;50.966;5.284;2023-12-14T06:16:51;30.33;;;13.38;;
37459;SDS011;23318;50.966;5.284;2023-12-14T06:19:17;29.40;;;12.40;;
37459;SDS011;23318;50.966;5.284;2023-12-14T06:21:42;29.63;;;13.10;;
37459;SDS011;23318;50.966;5.284;2023-12-14T06:24:08;27.05;;;12.77;;
37459;SDS011;23318;50.966;5.284;2023-12-14T06:26:34;31.58;;;14.80;;
37459;SDS011;23318;50.966;5.284;2023-12-14T06:28:59;28.15;;;13.88;;
37459;SDS011;23318;50.966;5.284;2023-12-14T06:31:25;31.52;;;13.02;;
37459;SDS011;23318;50.966;5.284;2023-12-14T06:33:51;26.75;;;12.45;;
37459;SDS011;23318;50.966;5.284;2023-12-14T06:36:16;28.20;;;12.35;;
37459;SDS011;23318;50.966;5.284;2023-12-14T06:38:45;28.85;;;13.27;;
37459;SDS011;23318;50.966;5.284;2023-12-14T06:41:20;27.13;;;12.93;;
37459;SDS011;23318;50.966;5.284;2023-12-14T06:43:47;25.33;;;11.95;;
37459;SDS011;23318;50.966;5.284;2023-12-14T06:46:13;27.02;;;13.38;;
37459;SDS011;23318;50.966;5.284;2023-12-14T06:48:39;26.63;;;12.63;;
37459;SDS011;23318;50.966;5.284;2023-12-14T06:51:05;27.50;;;12.15;;
37459;SDS011;23318;50.966;5.284;2023-12-14T06:53:31;27.23;;;12.75;;
37459;SDS011;23318;50.966;5.284;2023-12-14T06:55:56;27.55;;;13.25;;
37459;SDS011;23318;50.966;5.284;2023-12-14T06:58:22;24.52;;;11.93;;
37459;SDS011;23318;50.966;5.284;2023-12-14T07:00:48;25.42;;;12.50;;
37459;SDS011;23318;50.966;5.284;2023-12-14T07:03:13;23.38;;;11.80;;
37459;SDS011;23318;50.966;5.284;2023-12-14T07:05:39;30.17;;;13.40;;
37459;SDS011;23318;50.966;5.284;2023-12-14T07:08:05;21.90;;;10.45;;
37459;SDS011;23318;50.966;5.284;2023-12-14T07:10:30;30.27;;;12.95;;
37459;SDS011;23318;50.966;5.284;2023-12-14T07:12:56;28.95;;;12.13;;
37459;SDS011;23318;50.966;5.284;2023-12-14T07:15:22;26.70;;;12.27;;
37459;SDS011;23318;50.966;5.284;2023-12-14T07:17:47;23.85;;;11.65;;
37459;SDS011;23318;50.966;5.284;2023-12-14T07:20:13;30.75;;;12.93;;
37459;SDS011;23318;50.966;5.284;2023-12-14T07:22:39;26.67;;;12.38;;
37459;SDS011;23318;50.966;5.284;2023-12-14T07:25:05;23.85;;;11.82;;
37459;SDS011;23318;50.966;5.284;2023-12-14T07:27:31;26.40;;;12.20;;
37459;SDS011;23318;50.966;5.284;2023-12-14T07:29:56;24.58;;;12.20;;
37459;SDS011;23318;50.966;5.284;2023-12-14T07:32:22;21.88;;;10.80;;
37459;SDS011;23318;50.966;5.284;2023-12-14T07:34:47;24.17;;;12.00;;
37459;SDS011;23318;50.966;5.284;2023-12-14T07:37:13;24.17;;;11.80;;
37459;SDS011;23318;50.966;5.284;2023-12-14T07:39:39;23.50;;;12.10;;
37459;SDS011;23318;50.966;5.284;2023-12-14T07:42:05;25.67;;;11.90;;
37459;SDS011;23318;50.966;5.284;2023-12-14T07:44:31;28.52;;;13.25;;
37459;SDS011;23318;50.966;5.284;2023-12-14T07:46:58;25.50;;;11.95;;
37459;SDS011;23318;50.966;5.284;2023-12-14T07:49:25;27.30;;;12.88;;
37459;SDS011;23318;50.966;5.284;2023-12-14T07:51:50;31.25;;;14.63;;
37459;SDS011;23318;50.966;5.284;2023-12-14T07:54:16;28.05;;;13.80;;
37459;SDS011;23318;50.966;5.284;2023-12-14T07:56:43;28.02;;;12.85;;
37459;SDS011;23318;50.966;5.284;2023-12-14T07:59:09;30.63;;;14.15;;
37459;SDS011;23318;50.966;5.284;2023-12-14T08:01:35;35.88;;;15.30;;
37459;SDS011;23318;50.966;5.284;2023-12-14T08:04:01;33.60;;;14.75;;
37459;SDS011;23318;50.966;5.284;2023-12-14T08:06:27;35.80;;;15.73;;
37459;SDS011;23318;50.966;5.284;2023-12-14T08:08:54;33.10;;;14.68;;
37459;SDS011;23318;50.966;5.284;2023-12-14T08:11:20;32.20;;;13.82;;
37459;SDS011;23318;50.966;5.284;2023-12-14T08:13:45;39.28;;;15.82;;
37459;SDS011;23318;50.966;5.284;2023-12-14T08:16:12;33.67;;;14.48;;
37459;SDS011;23318;50.966;5.284;2023-12-14T08:18:38;32.75;;;13.57;;
37459;SDS011;23318;50.966;5.284;2023-12-14T08:21:04;33.42;;;14.32;;
37459;SDS011;23318;50.966;5.284;2023-12-14T08:23:29;35.03;;;14.68;;
37459;SDS011;23318;50.966;5.284;2023-12-14T08:25:55;33.25;;;14.30;;
37459;SDS011;23318;50.966;5.284;2023-12-14T08:28:24;31.58;;;13.43;;
37459;SDS011;23318;50.966;5.284;2023-12-14T08:30:50;33.22;;;14.82;;
37459;SDS011;23318;50.966;5.284;2023-12-14T08:33:16;34.95;;;14.23;;
37459;SDS011;23318;50.966;5.284;2023-12-14T08:35:42;32.95;;;15.10;;
37459;SDS011;23318;50.966;5.284;2023-12-14T08:38:08;31.30;;;14.57;;
37459;SDS011;23318;50.966;5.284;2023-12-14T08:40:34;29.95;;;12.70;;
37459;SDS011;23318;50.966;5.284;2023-12-14T08:43:00;35.03;;;14.55;;
37459;SDS011;23318;50.966;5.284;2023-12-14T08:45:27;30.05;;;14.00;;
37459;SDS011;23318;50.966;5.284;2023-12-14T08:47:53;29.17;;;14.35;;
37459;SDS011;23318;50.966;5.284;2023-12-14T08:50:19;32.95;;;13.05;;
37459;SDS011;23318;50.966;5.284;2023-12-14T08:52:45;24.40;;;11.07;;
37459;SDS011;23318;50.966;5.284;2023-12-14T08:55:11;30.88;;;11.82;;
37459;SDS011;23318;50.966;5.284;2023-12-14T08:57:36;30.90;;;12.57;;
37459;SDS011;23318;50.966;5.284;2023-12-14T09:00:02;30.00;;;13.00;;
37459;SDS011;23318;50.966;5.284;2023-12-14T09:02:29;32.97;;;12.95;;
37459;SDS011;23318;50.966;5.284;2023-12-14T09:04:55;25.23;;;12.48;;
37459;SDS011;23318;50.966;5.284;2023-12-14T09:07:21;28.17;;;11.85;;
37459;SDS011;23318;50.966;5.284;2023-12-14T09:09:46;27.25;;;12.40;;
37459;SDS011;23318;50.966;5.284;2023-12-14T09:12:12;34.63;;;12.75;;
37459;SDS011;23318;50.966;5.284;2023-12-14T09:14:38;24.65;;;10.43;;
37459;SDS011;23318;50.966;5.284;2023-12-14T09:17:03;22.10;;;10.88;;
37459;SDS011;23318;50.966;5.284;2023-12-14T09:19:29;26.02;;;12.93;;
37459;SDS011;23318;50.966;5.284;2023-12-14T09:21:56;23.73;;;11.25;;
37459;SDS011;23318;50.966;5.284;2023-12-14T09:24:22;27.88;;;12.98;;
37459;SDS011;23318;50.966;5.284;2023-12-14T09:26:48;29.50;;;12.18;;
37459;SDS011;23318;50.966;5.284;2023-12-14T09:29:14;23.83;;;12.00;;
37459;SDS011;23318;50.966;5.284;2023-12-14T09:31:43;25.17;;;12.63;;
37459;SDS011;23318;50.966;5.284;2023-12-14T09:34:10;30.83;;;12.45;;
37459;SDS011;23318;50.966;5.284;2023-12-14T09:36:36;23.92;;;10.95;;
37459;SDS011;23318;50.966;5.284;2023-12-14T09:39:02;26.08;;;12.68;;
37459;SDS011;23318;50.966;5.284;2023-12-14T09:41:28;22.65;;;11.20;;
37459;SDS011;23318;50.966;5.284;2023-12-14T09:43:54;21.27;;;10.85;;
37459;SDS011;23318;50.966;5.284;2023-12-14T09:46:20;20.90;;;10.57;;
37459;SDS011;23318;50.966;5.284;2023-12-14T09:48:47;24.38;;;10.40;;
37459;SDS011;23318;50.966;5.284;2023-12-14T09:51:18;26.02;;;10.35;;
37459;SDS011;23318;50.966;5.284;2023-12-14T09:53:43;27.20;;;10.50;;
37459;SDS011;23318;50.966;5.284;2023-12-14T09:56:09;21.92;;;9.65;;
37459;SDS011;23318;50.966;5.284;2023-12-14T09:58:35;18.83;;;9.07;;
37459;SDS011;23318;50.966;5.284;2023-12-14T10:01:01;19.40;;;9.30;;
37459;SDS011;23318;50.966;5.284;2023-12-14T10:03:29;16.60;;;7.50;;
37459;SDS011;23318;50.966;5.284;2023-12-14T10:05:57;16.75;;;7.90;;
37459;SDS011;23318;50.966;5.284;2023-12-14T10:08:24;19.40;;;7.72;;
37459;SDS011;23318;50.966;5.284;2023-12-14T10:10:51;18.52;;;9.13;;
37459;SDS011;23318;50.966;5.284;2023-12-14T10:13:18;19.17;;;8.65;;
37459;SDS011;23318;50.966;5.284;2023-12-14T10:15:46;18.40;;;8.75;;
37459;SDS011;23318;50.966;5.284;2023-12-14T10:18:19;25.77;;;9.18;;
37459;SDS011;23318;50.966;5.284;2023-12-14T10:20:50;16.45;;;8.02;;
37459;SDS011;23318;50.966;5.284;2023-12-14T10:23:16;23.98;;;9.23;;
37459;SDS011;23318;50.966;5.284;2023-12-14T10:25:42;15.30;;;7.88;;
37459;SDS011;23318;50.966;5.284;2023-12-14T10:28:11;14.02;;;7.43;;
37459;SDS011;23318;50.966;5.284;2023-12-14T10:30:38;18.17;;;7.38;;
37459;SDS011;23318;50.966;5.284;2023-12-14T10:33:04;15.38;;;7.72;;
37459;SDS011;23318;50.966;5.284;2023-12-14T10:35:30;16.77;;;7.32;;
37459;SDS011;23318;50.966;5.284;2023-12-14T10:37:56;9.95;;;5.90;;
37459;SDS011;23318;50.966;5.284;2023-12-14T10:40:26;10.23;;;5.82;;
37459;SDS011;23318;50.966;5.284;2023-12-14T10:42:53;11.65;;;6.15;;
37459;SDS011;23318;50.966;5.284;2023-12-14T10:45:24;10.02;;;5.13;;
37459;SDS011;23318;50.966;5.284;2023-12-14T10:47:54;11.57;;;5.47;;
37459;SDS011;23318;50.966;5.284;2023-12-14T10:50:21;10.70;;;4.68;;
37459;SDS011;23318;50.966;5.284;2023-12-14T10:52:48;9.30;;;5.07;;
37459;SDS011;23318;50.966;5.284;2023-12-14T10:55:21;9.98;;;4.97;;
37459;SDS011;23318;50.966;5.284;2023-12-14T10:57:58;9.82;;;5.75;;
37459;SDS011;23318;50.966;5.284;2023-12-14T11:00:23;9.20;;;5.13;;
37459;SDS011;23318;50.966;5.284;2023-12-14T11:02:49;10.63;;;4.85;;
37459;SDS011;23318;50.966;5.284;2023-12-14T11:05:17;7.93;;;4.65;;
37459;SDS011;23318;50.966;5.284;2023-12-14T11:07:49;8.75;;;4.60;;
37459;SDS011;23318;50.966;5.284;2023-12-14T11:10:26;10.38;;;4.65;;
37459;SDS011;23318;50.966;5.284;2023-12-14T11:15:27;10.23;;;4.20;;
37459;SDS011;23318;50.966;5.284;2023-12-14T11:23:14;7.05;;;4.65;;
37459;SDS011;23318;50.966;5.284;2023-12-14T11:25:51;8.18;;;4.63;;
37459;SDS011;23318;50.966;5.284;2023-12-14T11:28:18;11.45;;;4.20;;
37459;SDS011;23318;50.966;5.284;2023-12-14T11:30:45;7.57;;;3.85;;
37459;SDS011;23318;50.966;5.284;2023-12-14T11:33:11;10.63;;;5.72;;
37459;SDS011;23318;50.966;5.284;2023-12-14T11:35:38;8.23;;;5.32;;
37459;SDS011;23318;50.966;5.284;2023-12-14T11:38:04;9.38;;;5.00;;
37459;SDS011;23318;50.966;5.284;2023-12-14T11:40:38;11.23;;;5.78;;
37459;SDS011;23318;50.966;5.284;2023-12-14T11:43:04;9.15;;;5.03;;
37459;SDS011;23318;50.966;5.284;2023-12-14T11:45:34;14.68;;;5.80;;
37459;SDS011;23318;50.966;5.284;2023-12-14T11:48:01;11.60;;;6.43;;
37459;SDS011;23318;50.966;5.284;2023-12-14T11:50:31;12.35;;;6.53;;
37459;SDS011;23318;50.966;5.284;2023-12-14T11:52:58;13.43;;;6.65;;
37459;SDS011;23318;50.966;5.284;2023-12-14T11:55:28;11.68;;;6.57;;
37459;SDS011;23318;50.966;5.284;2023-12-14T11:57:55;10.20;;;5.40;;
37459;SDS011;23318;50.966;5.284;2023-12-14T12:00:26;12.50;;;6.20;;
37459;SDS011;23318;50.966;5.284;2023-12-14T12:03:15;10.50;;;5.38;;
37459;SDS011;23318;50.966;5.284;2023-12-14T12:05:42;13.50;;;5.28;;
37459;SDS011;23318;50.966;5.284;2023-12-14T12:08:09;11.68;;;5.72;;
37459;SDS011;23318;50.966;5.284;2023-12-14T12:10:36;10.45;;;6.13;;
37459;SDS011;23318;50.966;5.284;2023-12-14T12:13:03;11.98;;;5.68;;
37459;SDS011;23318;50.966;5.284;2023-12-14T12:15:33;12.18;;;5.63;;
37459;SDS011;23318;50.966;5.284;2023-12-14T12:18:05;8.93;;;4.90;;
37459;SDS011;23318;50.966;5.284;2023-12-14T12:20:31;12.63;;;5.25;;
37459;SDS011;23318;50.966;5.284;2023-12-14T12:22:57;9.05;;;4.80;;
37459;SDS011;23318;50.966;5.284;2023-12-14T12:25:23;15.25;;;6.15;;
37459;SDS011;23318;50.966;5.284;2023-12-14T12:27:49;9.63;;;4.80;;
37459;SDS011;23318;50.966;5.284;2023-12-14T12:30:15;13.55;;;4.93;;
37459;SDS011;23318;50.966;5.284;2023-12-14T12:32:41;8.65;;;4.80;;
37459;SDS011;23318;50.966;5.284;2023-12-14T12:35:07;8.52;;;5.03;;
37459;SDS011;23318;50.966;5.284;2023-12-14T12:37:33;12.63;;;5.40;;
37459;SDS011;23318;50.966;5.284;2023-12-14T12:39:59;11.32;;;6.18;;
37459;SDS011;23318;50.966;5.284;2023-12-14T12:42:24;11.68;;;5.78;;
37459;SDS011;23318;50.966;5.284;2023-12-14T12:44:50;10.35;;;6.03;;
37459;SDS011;23318;50.966;5.284;2023-12-14T12:47:16;11.60;;;5.72;;
37459;SDS011;23318;50.966;5.284;2023-12-14T12:49:43;11.73;;;6.32;;
37459;SDS011;23318;50.966;5.284;2023-12-14T12:52:08;12.88;;;6.80;;
37459;SDS011;23318;50.966;5.284;2023-12-14T12:54:34;9.27;;;5.80;;
37459;SDS011;23318;50.966;5.284;2023-12-14T12:57:00;14.13;;;6.65;;
37459;SDS011;23318;50.966;5.284;2023-12-14T12:59:26;14.00;;;6.63;;
37459;SDS011;23318;50.966;5.284;2023-12-14T13:01:52;14.48;;;6.32;;
37459;SDS011;23318;50.966;5.284;2023-12-14T13:04:22;15.38;;;6.78;;
37459;SDS011;23318;50.966;5.284;2023-12-14T13:06:48;11.45;;;6.85;;
37459;SDS011;23318;50.966;5.284;2023-12-14T13:09:14;13.23;;;7.00;;
37459;SDS011;23318;50.966;5.284;2023-12-14T13:11:41;11.55;;;7.38;;
37459;SDS011;23318;50.966;5.284;2023-12-14T13:14:08;11.48;;;5.82;;
37459;SDS011;23318;50.966;5.284;2023-12-14T13:16:36;14.23;;;6.18;;
37459;SDS011;23318;50.966;5.284;2023-12-14T13:19:03;8.18;;;5.47;;
37459;SDS011;23318;50.966;5.284;2023-12-14T13:21:30;9.00;;;6.05;;
37459;SDS011;23318;50.966;5.284;2023-12-14T13:23:55;12.95;;;5.55;;
37459;SDS011;23318;50.966;5.284;2023-12-14T13:26:24;11.32;;;5.22;;
37459;SDS011;23318;50.966;5.284;2023-12-14T13:28:50;8.15;;;5.07;;
37459;SDS011;23318;50.966;5.284;2023-12-14T13:31:16;13.25;;;5.80;;
37459;SDS011;23318;50.966;5.284;2023-12-14T13:33:42;8.38;;;5.18;;
37459;SDS011;23318;50.966;5.284;2023-12-14T13:36:08;13.35;;;6.43;;
37459;SDS011;23318;50.966;5.284;2023-12-14T13:38:34;13.60;;;6.30;;
37459;SDS011;23318;50.966;5.284;2023-12-14T13:41:01;12.95;;;5.80;;
37459;SDS011;23318;50.966;5.284;2023-12-14T13:43:28;14.93;;;6.32;;
37459;SDS011;23318;50.966;5.284;2023-12-14T13:45:54;12.88;;;6.40;;
37459;SDS011;23318;50.966;5.284;2023-12-14T13:48:26;10.45;;;5.55;;
37459;SDS011;23318;50.966;5.284;2023-12-14T13:50:52;13.95;;;5.63;;
37459;SDS011;23318;50.966;5.284;2023-12-14T13:53:19;13.52;;;6.18;;
37459;SDS011;23318;50.966;5.284;2023-12-14T13:55:45;9.88;;;6.10;;
37459;SDS011;23318;50.966;5.284;2023-12-14T13:58:11;9.50;;;5.90;;
37459;SDS011;23318;50.966;5.284;2023-12-14T14:00:37;10.63;;;5.90;;
37459;SDS011;23318;50.966;5.284;2023-12-14T14:03:03;10.70;;;5.13;;
37459;SDS011;23318;50.966;5.284;2023-12-14T14:05:30;12.73;;;5.60;;
37459;SDS011;23318;50.966;5.284;2023-12-14T14:07:56;9.55;;;5.35;;
37459;SDS011;23318;50.966;5.284;2023-12-14T14:10:22;13.27;;;5.65;;
37459;SDS011;23318;50.966;5.284;2023-12-14T14:12:48;11.32;;;5.63;;
37459;SDS011;23318;50.966;5.284;2023-12-14T14:15:14;13.77;;;5.70;;
37459;SDS011;23318;50.966;5.284;2023-12-14T14:17:39;10.40;;;5.60;;
37459;SDS011;23318;50.966;5.284;2023-12-14T14:20:05;12.45;;;6.72;;
37459;SDS011;23318;50.966;5.284;2023-12-14T14:22:32;14.40;;;5.30;;
37459;SDS011;23318;50.966;5.284;2023-12-14T14:24:58;11.80;;;6.47;;
37459;SDS011;23318;50.966;5.284;2023-12-14T14:27:24;13.43;;;6.18;;
37459;SDS011;23318;50.966;5.284;2023-12-14T14:29:50;12.93;;;6.50;;